DTTF/GAF METAR and TAF weather

Enter ICAO airport designator
Station Type Date Time Source
DTTF METAR 2021/05/11 22:00 UTC NOAA

DTTF 112200Z 07017KT 9999 FEW033 20/12 Q1017


Station Type Date Time Source
DTTF Decoded METAR 2021/05/11 22:00 UTC NOAA

Gafsa, Tunisia (DTTF) 34-25N 008-49E 314M
May 11, 2021 - 06:00 PM EDT / 2021.05.11 2200 UTC
Wind: from the ENE (070 degrees) at 20 MPH (17 KT):0
Visibility: greater than 7 mile(s):0
Sky conditions: mostly clear
Temperature: 68 F (20 C)
Dew Point: 53 F (12 C)
Relative Humidity: 59%
Pressure (altimeter): 30.03 in. Hg (1017 hPa)
ob: DTTF 112200Z 07017KT 9999 FEW033 20/12 Q1017
cycle: 22

Station Type Date Time Source
DTTF TAF 2021/01/24 22:42 UTC NOAA

TAF DTTF 242100Z 2422/2607 24010KT 9999 FEW033
BECMG 2500/2502 VRB03KT

Example: see airport list